createdAt,value
2022-12-08T00:01:20.087Z,16.30
2022-12-08T00:03:49.185Z,18.67
2022-12-08T00:06:43.001Z,15.43
2022-12-08T00:09:25.414Z,16.60
2022-12-08T00:11:57.659Z,18.87
2022-12-08T00:14:30.357Z,17.57
2022-12-08T00:16:59.509Z,17.23
2022-12-08T00:19:29.355Z,18.40
2022-12-08T00:21:58.223Z,17.63
2022-12-08T00:24:32.292Z,19.63
2022-12-08T00:27:00.917Z,18.03
2022-12-08T00:29:31.286Z,18.73
2022-12-08T00:32:00.121Z,20.53
2022-12-08T00:34:28.879Z,20.27
2022-12-08T00:36:57.475Z,16.23
2022-12-08T00:39:26.125Z,15.13
2022-12-08T00:42:12.367Z,17.77
2022-12-08T00:44:43.124Z,16.73
2022-12-08T00:47:11.943Z,15.93
2022-12-08T00:49:40.619Z,14.90
2022-12-08T00:52:09.379Z,14.47
2022-12-08T00:54:37.985Z,16.77
2022-12-08T00:57:07.155Z,15.40
2022-12-08T00:59:36.236Z,16.73
2022-12-08T01:02:06.263Z,13.67
2022-12-08T01:04:34.832Z,20.10
2022-12-08T01:07:03.429Z,15.00
2022-12-08T01:09:32.834Z,16.53
2022-12-08T01:12:01.528Z,15.23
2022-12-08T01:14:30.112Z,16.40
2022-12-08T01:16:58.925Z,14.10
2022-12-08T01:19:29.037Z,13.50
2022-12-08T01:21:57.623Z,16.73
2022-12-08T01:24:26.250Z,14.13
2022-12-08T01:26:54.807Z,16.73
2022-12-08T01:29:23.410Z,12.87
2022-12-08T01:31:52.096Z,14.20
2022-12-08T01:34:20.704Z,12.60
2022-12-08T01:36:50.739Z,14.43
2022-12-08T01:39:21.080Z,11.83
2022-12-08T01:41:50.066Z,15.73
2022-12-08T01:44:55.877Z,14.60
2022-12-08T01:47:28.761Z,19.37
2022-12-08T01:49:57.616Z,18.33
2022-12-08T01:52:34.025Z,12.57
2022-12-08T01:55:05.978Z,16.60
2022-12-08T01:57:38.803Z,18.60
2022-12-08T02:00:10.421Z,14.37
2022-12-08T02:02:49.585Z,14.70
2022-12-08T02:05:24.120Z,15.37
2022-12-08T02:07:54.718Z,14.17
2022-12-08T02:10:26.109Z,13.70
2022-12-08T02:12:56.680Z,17.40
2022-12-08T02:15:33.352Z,15.53
2022-12-08T02:18:27.595Z,18.87
2022-12-08T02:21:04.230Z,20.30
2022-12-08T02:23:42.706Z,16.07
2022-12-08T02:26:57.399Z,18.23
2022-12-08T02:29:53.869Z,16.17
2022-12-08T02:32:52.767Z,19.67
2022-12-08T02:35:29.130Z,18.83
2022-12-08T02:38:05.098Z,20.40
2022-12-08T02:40:38.280Z,19.70
2022-12-08T02:43:11.583Z,23.67
2022-12-08T02:45:45.732Z,19.60
2022-12-08T02:48:14.605Z,18.87
2022-12-08T02:50:44.859Z,18.53
2022-12-08T02:55:49.532Z,23.63
2022-12-08T02:58:35.575Z,13.97
2022-12-08T03:01:27.195Z,15.60
2022-12-08T03:04:06.145Z,15.10
2022-12-08T03:06:47.065Z,20.67
2022-12-08T03:09:24.440Z,19.63
2022-12-08T03:12:11.647Z,21.40
2022-12-08T03:14:43.441Z,24.87
2022-12-08T03:17:13.067Z,23.40
2022-12-08T03:19:45.155Z,17.73
2022-12-08T03:22:17.215Z,21.30
2022-12-08T03:24:47.899Z,17.40
2022-12-08T03:27:20.220Z,17.00
2022-12-08T03:29:49.711Z,18.13
2022-12-08T03:32:25.016Z,18.27
2022-12-08T03:34:54.627Z,21.53
2022-12-08T03:37:24.708Z,21.87
2022-12-08T03:39:53.310Z,18.57
2022-12-08T03:42:22.300Z,20.53
2022-12-08T03:44:50.959Z,20.43
2022-12-08T03:47:19.560Z,21.40
2022-12-08T03:49:48.127Z,19.93
2022-12-08T03:52:16.847Z,15.80
2022-12-08T03:54:46.808Z,18.50
2022-12-08T03:57:15.656Z,20.80
2022-12-08T03:59:44.293Z,15.57
2022-12-08T04:02:13.099Z,17.90
2022-12-08T04:04:41.713Z,20.63
2022-12-08T04:07:10.269Z,21.60
2022-12-08T04:09:39.249Z,18.73
2022-12-08T04:12:09.771Z,21.47
2022-12-08T04:14:38.464Z,21.30
2022-12-08T04:17:07.369Z,22.27
2022-12-08T04:19:35.986Z,22.00
2022-12-08T04:22:04.681Z,20.50
2022-12-08T04:24:33.265Z,20.13
2022-12-08T04:27:01.914Z,20.73
2022-12-08T04:29:31.925Z,21.73
2022-12-08T04:32:00.513Z,23.73
2022-12-08T04:34:29.200Z,20.20
2022-12-08T04:36:57.799Z,21.27
2022-12-08T04:39:26.646Z,20.73
2022-12-08T04:41:55.575Z,18.70
2022-12-08T04:44:24.444Z,20.17
2022-12-08T04:46:54.557Z,20.27
2022-12-08T04:49:23.466Z,21.30
2022-12-08T04:51:52.038Z,18.73
2022-12-08T04:54:20.601Z,22.17
2022-12-08T04:56:49.478Z,22.73
2022-12-08T04:59:18.068Z,23.87
2022-12-08T05:01:46.732Z,11.27
2022-12-08T05:04:17.377Z,23.17
2022-12-08T05:06:46.199Z,24.17
2022-12-08T05:09:14.903Z,17.87
2022-12-08T05:11:48.590Z,19.97
2022-12-08T05:14:19.259Z,25.00
2022-12-08T05:16:48.623Z,30.60
2022-12-08T05:19:18.839Z,24.00
2022-12-08T05:21:47.586Z,23.00
2022-12-08T05:24:16.525Z,23.53
2022-12-08T05:26:45.203Z,23.33
2022-12-08T05:29:14.036Z,22.33
2022-12-08T05:31:42.667Z,24.93
2022-12-08T05:34:11.286Z,26.00
2022-12-08T05:36:41.400Z,26.60
2022-12-08T05:39:13.536Z,29.93
2022-12-08T05:41:42.742Z,11.57
2022-12-08T05:44:11.599Z,27.37
2022-12-08T05:46:40.298Z,21.20
2022-12-08T05:49:08.921Z,19.57
2022-12-08T05:51:37.483Z,26.73
2022-12-08T05:54:07.763Z,26.43
2022-12-08T05:56:36.746Z,29.73
2022-12-08T05:59:08.208Z,36.10
2022-12-08T06:01:37.599Z,29.40
2022-12-08T06:04:06.713Z,31.87
2022-12-08T06:06:37.736Z,30.60
2022-12-08T06:09:09.392Z,26.43
2022-12-08T06:11:38.261Z,25.27
2022-12-08T06:14:07.091Z,23.93
2022-12-08T06:16:35.774Z,20.97
2022-12-08T06:19:04.612Z,20.37
2022-12-08T06:21:33.826Z,18.70
2022-12-08T06:24:02.644Z,23.53
2022-12-08T06:26:32.986Z,26.40
2022-12-08T06:29:02.157Z,19.30
2022-12-08T06:31:30.871Z,22.67
2022-12-08T06:33:59.726Z,23.73
2022-12-08T06:36:29.575Z,21.40
2022-12-08T06:38:58.875Z,17.13
2022-12-08T06:41:27.632Z,21.67
2022-12-08T06:43:59.141Z,21.00
2022-12-08T06:46:28.023Z,17.73
2022-12-08T06:48:56.832Z,16.73
2022-12-08T06:51:25.702Z,18.23
2022-12-08T06:53:54.400Z,16.17
2022-12-08T06:56:28.082Z,19.77
2022-12-08T06:58:57.223Z,14.60
2022-12-08T07:01:27.283Z,18.33
2022-12-08T07:03:55.895Z,23.37
2022-12-08T07:06:26.089Z,16.90
2022-12-08T07:08:54.966Z,15.83
2022-12-08T07:11:23.791Z,16.87
2022-12-08T07:13:52.580Z,12.75
2022-12-08T07:16:21.276Z,32.93
2022-12-08T07:18:51.719Z,28.53
2022-12-08T07:21:20.582Z,25.67
2022-12-08T07:23:57.387Z,22.47
2022-12-08T07:26:33.661Z,26.70
2022-12-08T07:29:02.654Z,20.30
2022-12-08T07:31:31.798Z,23.10
2022-12-08T07:34:01.971Z,25.70
2022-12-08T07:36:30.712Z,23.40
2022-12-08T07:38:59.353Z,21.13
2022-12-08T07:41:28.241Z,18.37
2022-12-08T07:43:58.582Z,19.83
2022-12-08T07:46:28.106Z,21.87
2022-12-08T07:48:57.314Z,24.93
2022-12-08T07:51:27.972Z,26.73
2022-12-08T07:53:56.705Z,26.23
2022-12-08T07:56:25.741Z,30.00
2022-12-08T07:58:55.387Z,24.90
2022-12-08T08:01:26.627Z,15.13
2022-12-08T08:03:57.070Z,28.93
2022-12-08T08:06:27.394Z,35.23
2022-12-08T08:08:56.441Z,37.10
2022-12-08T08:11:25.535Z,21.50
2022-12-08T08:13:54.887Z,24.47
2022-12-08T08:16:23.704Z,31.97
2022-12-08T08:18:53.188Z,28.53
2022-12-08T08:21:44.537Z,21.80
2022-12-08T08:24:13.271Z,25.30
2022-12-08T08:26:46.354Z,24.47
2022-12-08T08:29:15.274Z,20.90
2022-12-08T08:31:51.159Z,18.13
2022-12-08T08:34:19.929Z,18.50
2022-12-08T08:36:48.776Z,20.53
2022-12-08T08:39:19.549Z,27.47
2022-12-08T08:41:48.283Z,117.43
2022-12-08T08:44:17.274Z,336.63
2022-12-08T08:46:46.285Z,493.97
2022-12-08T08:49:15.064Z,242.07
2022-12-08T08:51:44.043Z,21.83
2022-12-08T08:54:13.087Z,24.83
2022-12-08T08:56:43.195Z,20.23
2022-12-08T08:59:12.846Z,23.77
2022-12-08T09:01:41.785Z,24.67
2022-12-08T09:04:12.152Z,26.07
2022-12-08T09:06:40.898Z,22.07
2022-12-08T09:09:09.616Z,12.93
2022-12-08T09:11:38.398Z,16.30
2022-12-08T09:14:08.653Z,29.90
2022-12-08T09:16:41.920Z,30.57
2022-12-08T09:19:11.404Z,27.83
2022-12-08T09:21:41.838Z,26.23
2022-12-08T09:24:16.702Z,26.73
2022-12-08T09:26:47.099Z,25.60
2022-12-08T09:29:17.912Z,23.00
2022-12-08T09:31:46.934Z,26.87
2022-12-08T09:34:15.991Z,21.97
2022-12-08T09:36:44.654Z,25.60
2022-12-08T09:39:13.326Z,26.83
2022-12-08T09:41:50.074Z,27.97
2022-12-08T09:44:40.051Z,12.15
2022-12-08T09:47:17.918Z,15.07
2022-12-08T09:49:51.564Z,31.70
2022-12-08T09:52:26.405Z,28.43
2022-12-08T09:54:58.566Z,33.43
2022-12-08T09:57:28.095Z,28.27
2022-12-08T10:00:03.031Z,31.10
2022-12-08T10:02:32.325Z,34.23
2022-12-08T10:05:01.140Z,30.97
2022-12-08T10:07:39.777Z,29.37
2022-12-08T10:10:22.208Z,32.07
2022-12-08T10:12:56.858Z,33.97
2022-12-08T10:15:42.362Z,34.77
2022-12-08T10:18:17.284Z,35.27
2022-12-08T10:20:48.120Z,31.17
2022-12-08T10:23:26.165Z,34.07
2022-12-08T10:26:02.192Z,32.67
2022-12-08T10:28:31.020Z,30.00
2022-12-08T10:31:01.202Z,32.37
2022-12-08T10:33:30.795Z,46.67
2022-12-08T10:36:03.234Z,37.47
2022-12-08T10:38:34.245Z,31.73
2022-12-08T10:41:06.526Z,32.30
2022-12-08T10:43:35.743Z,34.33
2022-12-08T10:46:14.636Z,35.30
2022-12-08T10:48:54.640Z,33.77
2022-12-08T10:51:30.961Z,36.60
2022-12-08T10:53:59.703Z,35.57
2022-12-08T10:56:30.061Z,26.53
2022-12-08T10:59:23.922Z,29.10
2022-12-08T11:01:55.468Z,36.27
2022-12-08T11:04:36.248Z,32.53
2022-12-08T11:07:07.152Z,32.83
2022-12-08T11:09:47.165Z,33.20
2022-12-08T11:12:19.106Z,23.13
2022-12-08T11:14:56.438Z,19.43
2022-12-08T11:17:29.779Z,25.90
2022-12-08T11:20:01.552Z,28.33
2022-12-08T11:22:33.654Z,27.27
2022-12-08T11:25:05.028Z,26.13
2022-12-08T11:27:36.884Z,29.13
2022-12-08T11:30:15.387Z,28.70
2022-12-08T11:32:47.267Z,30.80
2022-12-08T11:35:24.809Z,33.43
2022-12-08T11:38:03.324Z,25.77
2022-12-08T11:40:45.520Z,32.50
2022-12-08T11:43:20.709Z,26.30
2022-12-08T11:45:53.706Z,29.20
2022-12-08T11:48:29.789Z,27.40
2022-12-08T11:51:02.467Z,26.47
2022-12-08T11:53:37.168Z,27.77
2022-12-08T11:56:12.335Z,28.43
2022-12-08T11:58:48.945Z,24.10
2022-12-08T12:01:21.510Z,26.17
2022-12-08T12:04:00.871Z,26.13
2022-12-08T12:06:56.062Z,25.30
2022-12-08T12:09:37.826Z,33.37
2022-12-08T12:12:17.106Z,30.97
2022-12-08T12:15:21.995Z,31.30
2022-12-08T12:17:54.288Z,33.33
2022-12-08T12:20:29.410Z,30.10
2022-12-08T12:23:03.017Z,32.40
2022-12-08T12:25:31.809Z,32.03
2022-12-08T12:28:04.208Z,35.10
2022-12-08T12:30:53.928Z,34.50
2022-12-08T12:33:24.068Z,35.13
2022-12-08T12:35:58.383Z,38.10
2022-12-08T12:38:49.900Z,37.37
2022-12-08T12:41:25.875Z,38.00
2022-12-08T12:44:40.170Z,37.80
2022-12-08T12:47:14.867Z,36.13
2022-12-08T12:50:10.583Z,38.80
2022-12-08T12:52:45.544Z,34.87
2022-12-08T12:55:52.449Z,36.73
2022-12-08T12:58:36.774Z,39.83
2022-12-08T13:01:48.073Z,35.93
2022-12-08T13:04:20.288Z,40.63
2022-12-08T13:06:52.511Z,38.53
2022-12-08T13:09:28.427Z,40.23
2022-12-08T13:11:59.918Z,39.43
2022-12-08T13:14:32.344Z,42.23
2022-12-08T13:17:03.216Z,41.87
2022-12-08T13:19:38.587Z,39.30
2022-12-08T13:22:40.572Z,43.00
2022-12-08T13:25:52.558Z,41.70
2022-12-08T13:28:24.700Z,42.43
2022-12-08T13:30:54.192Z,45.83
2022-12-08T13:33:32.582Z,43.83
2022-12-08T13:36:14.852Z,43.47
2022-12-08T13:38:46.960Z,46.53
2022-12-08T13:41:22.027Z,41.73
2022-12-08T13:44:50.386Z,41.77
2022-12-08T13:47:31.635Z,45.33
2022-12-08T13:58:29.767Z,39.80
2022-12-08T14:01:04.119Z,43.93
2022-12-08T14:04:04.670Z,44.40
2022-12-08T14:06:38.982Z,46.53
2022-12-08T14:09:12.453Z,47.33
2022-12-08T14:11:44.178Z,46.37
2022-12-08T14:14:32.707Z,49.20
2022-12-08T14:17:11.629Z,47.97
2022-12-08T14:19:40.507Z,48.77
2022-12-08T14:22:13.948Z,51.77
2022-12-08T14:24:46.557Z,51.43
2022-12-08T14:27:20.872Z,53.23
2022-12-08T14:29:53.570Z,61.37
2022-12-08T14:32:28.803Z,64.87
2022-12-08T14:35:00.462Z,58.17
2022-12-08T14:37:31.692Z,56.50
2022-12-08T14:40:04.159Z,57.40
2022-12-08T14:42:32.988Z,57.07
2022-12-08T14:45:06.937Z,52.53
2022-12-08T14:47:36.797Z,51.53
2022-12-08T14:50:26.898Z,46.53
2022-12-08T14:52:55.878Z,53.60
2022-12-08T14:55:24.784Z,50.37
2022-12-08T14:57:56.103Z,52.77
2022-12-08T15:00:27.587Z,48.67
2022-12-08T15:02:57.228Z,48.17
2022-12-08T15:05:30.767Z,49.80
2022-12-08T15:08:04.995Z,45.37
2022-12-08T15:10:38.321Z,47.27
2022-12-08T15:13:22.248Z,46.97
2022-12-08T15:15:54.699Z,45.00
2022-12-08T15:18:31.955Z,46.27
2022-12-08T15:21:06.114Z,46.07
2022-12-08T15:23:45.104Z,45.73
2022-12-08T15:26:21.811Z,43.00
2022-12-08T15:28:50.562Z,48.77
2022-12-08T15:31:21.044Z,45.70
2022-12-08T15:33:50.021Z,49.03
2022-12-08T15:36:18.903Z,44.80
2022-12-08T15:38:47.579Z,45.77
2022-12-08T15:41:16.530Z,47.27
2022-12-08T15:43:45.281Z,46.93
2022-12-08T15:46:14.539Z,48.03
2022-12-08T15:48:44.609Z,47.33
2022-12-08T15:51:13.357Z,48.30
2022-12-08T15:53:42.657Z,47.43
2022-12-08T15:56:28.013Z,46.73
2022-12-08T15:58:58.348Z,41.90
2022-12-08T16:01:27.786Z,41.70
2022-12-08T16:09:39.763Z,48.30
2022-12-08T16:13:13.391Z,50.10
2022-12-08T16:15:50.145Z,39.10
2022-12-08T16:18:17.840Z,44.37
2022-12-08T16:23:44.892Z,46.60
2022-12-08T16:29:04.734Z,45.93
2022-12-08T16:31:33.693Z,48.13
2022-12-08T16:34:02.559Z,44.53
2022-12-08T16:36:32.725Z,47.53
2022-12-08T16:39:01.380Z,44.70
2022-12-08T16:41:47.577Z,45.40
2022-12-08T16:44:16.190Z,45.23
2022-12-08T16:46:44.815Z,46.40
2022-12-08T16:49:15.652Z,46.87
2022-12-08T16:51:46.170Z,48.17
2022-12-08T16:54:14.980Z,45.17
2022-12-08T16:56:44.138Z,47.33
2022-12-08T16:59:12.942Z,48.07
2022-12-08T17:01:41.650Z,47.03
2022-12-08T17:07:03.274Z,43.30
2022-12-08T17:09:33.430Z,47.60
2022-12-08T17:12:04.258Z,45.43
2022-12-08T17:14:35.647Z,46.03
2022-12-08T17:17:05.067Z,46.67
2022-12-08T17:19:33.880Z,47.40
2022-12-08T17:22:04.104Z,51.07
2022-12-08T17:24:33.712Z,43.63
2022-12-08T17:27:05.030Z,43.57
2022-12-08T17:29:34.845Z,53.60
2022-12-08T17:32:03.780Z,47.83
2022-12-08T17:34:33.220Z,49.70
2022-12-08T17:37:03.394Z,50.67
2022-12-08T17:39:32.227Z,46.93
2022-12-08T17:42:01.027Z,53.53
2022-12-08T17:44:29.790Z,52.57
2022-12-08T17:46:58.644Z,53.47
2022-12-08T17:49:29.788Z,49.63
2022-12-08T17:52:01.221Z,48.53
2022-12-08T17:54:31.647Z,47.00
2022-12-08T17:57:00.841Z,45.87
2022-12-08T17:59:30.106Z,46.03
2022-12-08T18:01:59.576Z,55.50
2022-12-08T18:04:29.322Z,43.37
2022-12-08T18:07:01.669Z,54.47
2022-12-08T18:09:34.035Z,49.93
2022-12-08T18:12:08.534Z,55.33
2022-12-08T18:14:37.413Z,47.40
2022-12-08T18:17:06.278Z,45.20
2022-12-08T18:19:35.160Z,44.43
2022-12-08T18:22:03.952Z,46.93
2022-12-08T18:24:34.241Z,46.60
2022-12-08T18:27:02.851Z,49.70
2022-12-08T18:29:31.630Z,47.50
2022-12-08T18:32:00.712Z,51.03
2022-12-08T18:34:29.537Z,44.33
2022-12-08T18:36:58.199Z,43.10
2022-12-08T18:39:28.675Z,40.87
2022-12-08T18:42:02.835Z,46.33
2022-12-08T18:44:31.765Z,44.13
2022-12-08T18:47:00.654Z,39.53
2022-12-08T18:49:29.272Z,39.43
2022-12-08T18:51:57.986Z,38.13
2022-12-08T18:54:37.125Z,39.00
2022-12-08T18:57:17.921Z,43.60
2022-12-08T18:59:50.926Z,40.53
2022-12-08T19:02:20.032Z,44.97
2022-12-08T19:04:48.759Z,43.83
2022-12-08T19:07:20.080Z,44.03
2022-12-08T19:09:49.765Z,44.00
2022-12-08T19:12:29.466Z,45.47
2022-12-08T19:14:59.181Z,44.90
2022-12-08T19:17:29.825Z,48.23
2022-12-08T19:19:59.282Z,45.67
2022-12-08T19:22:28.141Z,47.17
2022-12-08T19:24:56.897Z,49.67
2022-12-08T19:27:28.412Z,46.10
2022-12-08T19:29:57.161Z,43.70
2022-12-08T19:32:25.928Z,42.13
2022-12-08T19:34:54.714Z,44.33
2022-12-08T19:37:23.362Z,44.50
2022-12-08T19:40:09.660Z,45.80
2022-12-08T19:42:57.420Z,39.60
2022-12-08T19:45:26.339Z,39.63
2022-12-08T19:47:57.868Z,40.90
2022-12-08T19:50:38.758Z,44.20
2022-12-08T19:53:10.141Z,35.83
2022-12-08T19:55:39.464Z,38.93
2022-12-08T19:58:10.622Z,34.10
2022-12-08T20:00:41.272Z,38.63
2022-12-08T20:03:10.354Z,36.43
2022-12-08T20:05:42.136Z,35.90
2022-12-08T20:08:11.332Z,39.43
2022-12-08T20:10:42.212Z,37.83
2022-12-08T20:13:32.108Z,38.43
2022-12-08T20:16:01.022Z,37.53
2022-12-08T20:18:30.091Z,38.13
2022-12-08T20:20:59.260Z,36.80
2022-12-08T20:23:28.025Z,40.30
2022-12-08T20:25:56.978Z,41.53
2022-12-08T20:28:27.189Z,39.93
2022-12-08T20:30:56.006Z,45.10
2022-12-08T20:33:25.098Z,44.23
2022-12-08T20:36:00.600Z,42.03
2022-12-08T20:38:30.531Z,44.13
2022-12-08T20:41:00.205Z,50.73
2022-12-08T20:43:30.207Z,56.70
2022-12-08T20:45:59.149Z,63.40
2022-12-08T20:48:27.856Z,63.13
2022-12-08T20:50:56.449Z,69.83
2022-12-08T20:53:25.656Z,80.97
2022-12-08T20:55:54.512Z,75.67
2022-12-08T20:58:23.237Z,68.47
2022-12-08T21:00:53.491Z,63.00
2022-12-08T21:03:22.366Z,65.53
2022-12-08T21:05:52.213Z,64.10
2022-12-08T21:08:21.401Z,66.33
2022-12-08T21:10:55.754Z,62.67
2022-12-08T21:13:24.765Z,59.47
2022-12-08T21:15:54.981Z,63.57
2022-12-08T21:18:24.466Z,50.73
2022-12-08T21:20:54.668Z,56.67
2022-12-08T21:23:23.827Z,57.20
2022-12-08T21:25:52.753Z,60.03
2022-12-08T21:28:21.511Z,66.70
2022-12-08T21:30:51.953Z,64.63
2022-12-08T21:33:22.269Z,59.10
2022-12-08T21:35:51.098Z,56.00
2022-12-08T21:38:19.764Z,54.73
2022-12-08T21:40:48.327Z,55.67
2022-12-08T21:43:17.181Z,58.93
2022-12-08T21:45:45.774Z,53.67
2022-12-08T21:48:14.520Z,59.10
2022-12-08T21:50:44.595Z,58.70
2022-12-08T21:53:13.200Z,63.10
2022-12-08T21:55:41.815Z,56.80
2022-12-08T21:58:10.407Z,61.93
2022-12-08T22:00:39.133Z,63.13
2022-12-08T22:03:08.580Z,66.97
2022-12-08T22:05:37.566Z,67.83
2022-12-08T22:08:09.088Z,70.77
2022-12-08T22:10:38.483Z,63.20
2022-12-08T22:13:07.267Z,63.67
2022-12-08T22:15:36.118Z,62.40
2022-12-08T22:18:05.543Z,51.60
2022-12-08T22:20:38.317Z,54.93
2022-12-08T22:23:11.438Z,64.13
2022-12-08T22:25:40.213Z,58.20
2022-12-08T22:28:08.932Z,57.80
2022-12-08T22:30:39.355Z,59.70
2022-12-08T22:33:08.627Z,59.90
2022-12-08T22:35:37.260Z,58.57
2022-12-08T22:38:05.876Z,60.13
2022-12-08T22:40:36.070Z,57.80
2022-12-08T22:43:04.831Z,58.65
2022-12-08T22:45:33.729Z,54.27
2022-12-08T22:48:02.777Z,54.37
2022-12-08T22:50:31.488Z,60.63
2022-12-08T22:53:00.159Z,56.77
2022-12-08T22:55:28.873Z,58.80
2022-12-08T22:57:58.866Z,56.13
2022-12-08T23:00:27.608Z,52.97
2022-12-08T23:02:56.712Z,53.80
2022-12-08T23:05:25.508Z,51.73
2022-12-08T23:07:54.563Z,51.50
2022-12-08T23:10:23.488Z,51.63
2022-12-08T23:12:52.170Z,47.60
2022-12-08T23:15:22.555Z,51.27
2022-12-08T23:17:51.544Z,51.80
2022-12-08T23:20:20.820Z,52.70
2022-12-08T23:22:50.187Z,57.40
2022-12-08T23:25:19.455Z,54.30
2022-12-08T23:27:49.345Z,51.77
2022-12-08T23:30:18.240Z,54.83
2022-12-08T23:32:48.359Z,57.27
2022-12-08T23:35:17.585Z,52.47
2022-12-08T23:37:46.171Z,54.30
2022-12-08T23:40:15.171Z,48.60
2022-12-08T23:42:43.884Z,51.27
2022-12-08T23:45:13.403Z,52.57
2022-12-08T23:47:42.183Z,53.10
2022-12-08T23:50:13.182Z,52.73
2022-12-08T23:52:42.111Z,51.33
2022-12-08T23:55:11.436Z,48.07
2022-12-08T23:57:40.536Z,49.17
